Mary Ann Moran — WDF4572 — position and weather

sailwx.info

Track history (hours):
 
Tides and Currents Weather Stations Pressure Air Temp Water Temp Dewpoint Dewpoint Depression Visibility Wind Speed Wind Dir Waves Ship Positions

Mary Ann Moran

Owner: MORAN TOWING CORPORATION, NEW CANAAN, CT. More information available from US FCC via Universal Licensing System and Coast Guard Vessel Documentation Center.

Last reported at 2016-Jun-22 10:24 UTC. Time now 2016-Jun-27 11:28 UTC.
Position N 29°42' W 089°59'.

Length 188 m; draft 5 m.

Type: Cargo ship. MMSI: 367453420.

Date/timePositionNaut miles runAvg speedWind from/ knotsBaromVisibWave heightAir tempDewpointWater temp
2016-Jun-22 10:24N 29°42' W 089°59'4 4.1
2016-Jun-22 09:25N 29°46' W 090°02'7 8.6
2016-Jun-22 08:34N 29°53' W 089°58'3 3.3
2016-Jun-22 07:33N 29°56' W 089°59'2 2.3
2016-Jun-22 06:33N 29°57' W 090°02'0 0.1
2016-Jun-22 05:33N 29°57' W 090°01'0 0.0
2016-Jun-22 04:33N 29°57' W 090°01'0 0.0
2016-Jun-22 03:33N 29°57' W 090°01'0 0.0
2016-Jun-21 12:15N 29°57' W 090°01'0 0.0
2016-Jun-21 11:09N 29°57' W 090°01'0 0.0
2016-Jun-20 20:15N 29°57' W 090°01'0 0.0
2016-Jun-20 19:33N 29°57' W 090°01'0 0.0
2016-Jun-20 18:33N 29°57' W 090°01'0 0.0
2016-Jun-20 17:33N 29°57' W 090°01'0 0.0
2016-Jun-20 16:33N 29°57' W 090°01'0 0.0
2016-Jun-20 15:33N 29°57' W 090°01'0 0.3
2016-Jun-20 14:32N 29°57' W 090°02'0 0.0
2016-Jun-20 13:32N 29°57' W 090°02'0 0.0
2016-Jun-20 12:32N 29°57' W 090°02'0 0.0
2016-Jun-20 11:32N 29°57' W 090°02'0 0.0
2016-Jun-20 10:32N 29°57' W 090°02'0 0.0
2016-Jun-20 09:32N 29°57' W 090°02'0 0.0
2016-Jun-20 08:32N 29°57' W 090°02'0 0.0
2016-Jun-20 07:32N 29°57' W 090°02'0 0.0
2016-Jun-20 06:32N 29°57' W 090°02'0 0.0
2016-Jun-20 05:32N 29°57' W 090°02'0 0.0
2016-Jun-20 04:32N 29°57' W 090°02'0 0.0
2016-Jun-20 03:32N 29°57' W 090°02'0 0.0
2016-Jun-20 02:32N 29°57' W 090°02'0 0.0
2016-Jun-20 01:32N 29°57' W 090°02'0 0.2
2016-Jun-20 00:33N 29°57' W 090°02'0 0.0
2016-Jun-19 23:33N 29°57' W 090°02'6 5.7
2016-Jun-19 22:34N 29°55' W 089°55'5 4.9
2016-Jun-19 21:34N 29°51' W 089°59'  
Track history (hours):
 
Tides and Currents Weather Stations Pressure Air Temp Water Temp Dewpoint Dewpoint Depression Visibility Wind Speed Wind Dir Waves Ship Positions

Mary Ann Moran

Owner: MORAN TOWING CORPORATION, NEW CANAAN, CT. More information available from US FCC via Universal Licensing System and Coast Guard Vessel Documentation Center.

Last reported at 2016-Jun-22 10:24 UTC. Time now 2016-Jun-27 11:28 UTC.
Position N 29°42' W 089°59'.

Length 188 m; draft 5 m.

Type: Cargo ship. MMSI: 367453420.

Date/timePositionNaut miles runAvg speedWind from/ knotsBaromVisibWave heightAir tempDewpointWater temp
2016-Jun-22 10:24N 29°42' W 089°59'4 4.1
2016-Jun-22 09:25N 29°46' W 090°02'7 8.6
2016-Jun-22 08:34N 29°53' W 089°58'3 3.3
2016-Jun-22 07:33N 29°56' W 089°59'2 2.3
2016-Jun-22 06:33N 29°57' W 090°02'0 0.1
2016-Jun-22 05:33N 29°57' W 090°01'0 0.0
2016-Jun-22 04:33N 29°57' W 090°01'0 0.0
2016-Jun-22 03:33N 29°57' W 090°01'0 0.0
2016-Jun-21 12:15N 29°57' W 090°01'0 0.0
2016-Jun-21 11:09N 29°57' W 090°01'0 0.0
2016-Jun-20 20:15N 29°57' W 090°01'0 0.0
2016-Jun-20 19:33N 29°57' W 090°01'0 0.0
2016-Jun-20 18:33N 29°57' W 090°01'0 0.0
2016-Jun-20 17:33N 29°57' W 090°01'0 0.0
2016-Jun-20 16:33N 29°57' W 090°01'0 0.0
2016-Jun-20 15:33N 29°57' W 090°01'0 0.3
2016-Jun-20 14:32N 29°57' W 090°02'0 0.0
2016-Jun-20 13:32N 29°57' W 090°02'0 0.0
2016-Jun-20 12:32N 29°57' W 090°02'0 0.0
2016-Jun-20 11:32N 29°57' W 090°02'0 0.0
2016-Jun-20 10:32N 29°57' W 090°02'0 0.0
2016-Jun-20 09:32N 29°57' W 090°02'0 0.0
2016-Jun-20 08:32N 29°57' W 090°02'0 0.0
2016-Jun-20 07:32N 29°57' W 090°02'0 0.0
2016-Jun-20 06:32N 29°57' W 090°02'0 0.0
2016-Jun-20 05:32N 29°57' W 090°02'0 0.0
2016-Jun-20 04:32N 29°57' W 090°02'0 0.0
2016-Jun-20 03:32N 29°57' W 090°02'0 0.0
2016-Jun-20 02:32N 29°57' W 090°02'0 0.0
2016-Jun-20 01:32N 29°57' W 090°02'0 0.2
2016-Jun-20 00:33N 29°57' W 090°02'0 0.0
2016-Jun-19 23:33N 29°57' W 090°02'6 5.7
2016-Jun-19 22:34N 29°55' W 089°55'5 4.9
2016-Jun-19 21:34N 29°51' W 089°59'  

Dump ship's entire track history